GCLA/SPC METAR and TAF weather

Enter ICAO airport designator
Station Type Date Time Source
GCLA METAR 2023/02/06 20:00 UTC NOAA

GCLA 062000Z 02014G24KT 350V060 9999 FEW045 17/10 Q1023


Station Type Date Time Source
GCLA Decoded METAR 2023/02/06 20:00 UTC NOAA

La Palma / Aeropuerto, Spain (GCLA) 28-37N 017-45W 31M
Feb 06, 2023 - 03:00 PM EST / 2023.02.06 2000 UTC
Wind: from the NNE (020 degrees) at 16 MPH (14 KT) gusting to 28 MPH (24 KT) (direction variable):0
Visibility: greater than 7 mile(s):0
Sky conditions: mostly clear
Temperature: 62 F (17 C)
Dew Point: 50 F (10 C)
Relative Humidity: 63%
Pressure (altimeter): 30.21 in. Hg (1023 hPa)
ob: GCLA 062000Z 02014G24KT 350V060 9999 FEW045 17/10 Q1023
cycle: 20

Station Type Date Time Source
GCLA TAF 2023/02/06 15:27 UTC NOAA

TAF GCLA 061400Z 0615/0715 03012KT 9999 SCT040 TX20/0714Z TN15/0706Z
BECMG 0619/0622 32008KT PROB40
TEMPO 0615/0621 03015G25KT RA
BECMG 0709/0711 03014KT

Example: see airport list